Time;durP1;ratioP1;P1;durP2;ratioP2;P2;SDS_P1;SDS_P2;PMS_P1;PMS_P2;Temp;Humidity;BMP_temperature;BMP_pressure;BME280_temperature;BME280_humidity;BME280_pressure;Samples;Min_cycle;Max_cycle;Signal;HPM_P1;HPM_P2
2021/11/23 00:00:44;;;;;;;22.95;10.27;;;4.30;99.90;;;;;;5034612;28;20045;-64
2021/11/23 00:03:12;;;;;;;19.27;12.32;;;4.40;99.90;;;;;;5048876;28;20404;-64
2021/11/23 00:05:41;;;;;;;23.45;10.60;;;4.50;99.90;;;;;;5031376;28;20451;-68
2021/11/23 00:08:09;;;;;;;22.90;11.57;;;4.50;99.90;;;;;;5048015;28;20060;-65
2021/11/23 00:10:37;;;;;;;20.02;10.57;;;4.60;99.90;;;;;;5058631;28;20579;-66
2021/11/23 00:13:04;;;;;;;25.00;11.52;;;4.60;99.90;;;;;;5042211;28;20053;-65
2021/11/23 00:15:34;;;;;;;24.58;12.90;;;4.60;99.90;;;;;;5057566;28;20048;-65
2021/11/23 00:18:04;;;;;;;;;;;4.70;99.90;;;;;;5042436;28;20052;-64
2021/11/23 00:20:31;;;;;;;35.05;12.88;;;4.70;99.90;;;;;;5062917;28;19927;-64
2021/11/23 00:22:59;;;;;;;34.20;13.93;;;4.80;99.90;;;;;;5061262;28;20040;-64
2021/11/23 00:25:26;;;;;;;33.45;15.98;;;4.80;99.90;;;;;;5067988;28;20068;-64
2021/11/23 00:27:54;;;;;;;37.33;15.18;;;4.80;99.90;;;;;;5050534;28;20049;-64
2021/11/23 00:30:21;;;;;;;30.67;15.20;;;4.90;99.90;;;;;;5064152;28;20045;-66
2021/11/23 00:32:51;;;;;;;40.90;17.65;;;4.90;99.90;;;;;;5033682;28;20483;-67
2021/11/23 00:35:18;;;;;;;34.47;16.67;;;5.00;99.90;;;;;;5052121;28;20060;-64
2021/11/23 00:37:49;;;;;;;41.85;19.38;;;5.00;99.90;;;;;;5056082;28;20044;-64
2021/11/23 00:40:17;;;;;;;37.08;18.33;;;5.00;99.90;;;;;;5059837;28;20060;-67
2021/11/23 00:42:44;;;;;;;35.00;17.33;;;5.10;99.90;;;;;;5059872;28;20044;-64
2021/11/23 00:45:11;;;;;;;31.02;15.82;;;5.10;99.90;;;;;;5049120;28;20037;-66
2021/11/23 00:47:38;;;;;;;32.90;18.70;;;5.10;99.90;;;;;;5053653;28;20487;-64
2021/11/23 00:50:06;;;;;;;30.50;18.10;;;5.10;99.90;;;;;;5054856;28;20036;-64
2021/11/23 00:52:34;;;;;;;34.97;18.15;;;5.10;99.90;;;;;;5064287;28;20067;-64
2021/11/23 00:55:01;;;;;;;40.65;19.15;;;5.10;99.90;;;;;;5032689;28;20585;-64
2021/11/23 00:57:28;;;;;;;32.78;18.77;;;5.10;99.90;;;;;;5058800;28;20060;-64
2021/11/23 00:59:55;;;;;;;31.88;17.10;;;5.20;99.90;;;;;;5052800;28;20071;-65
2021/11/23 01:02:22;;;;;;;36.70;18.95;;;5.10;99.90;;;;;;5059884;28;20063;-65
2021/11/23 01:04:49;;;;;;;37.03;17.45;;;5.10;99.90;;;;;;5037181;28;20048;-63
2021/11/23 01:07:17;;;;;;;34.63;18.63;;;5.10;99.90;;;;;;5062426;28;20127;-64
2021/11/23 01:09:44;;;;;;;41.08;19.38;;;5.10;99.90;;;;;;5057044;28;20127;-64
2021/11/23 01:12:11;;;;;;;39.03;20.17;;;5.10;99.90;;;;;;5066334;28;20502;-64
2021/11/23 01:14:38;;;;;;;30.65;16.58;;;5.10;99.90;;;;;;5052259;28;20460;-63
2021/11/23 01:17:05;;;;;;;37.33;18.60;;;5.10;99.90;;;;;;5065002;28;20052;-65
2021/11/23 01:19:32;;;;;;;37.92;20.35;;;5.10;99.90;;;;;;5051668;28;20041;-64
2021/11/23 01:21:59;;;;;;;33.88;17.70;;;5.10;99.90;;;;;;5056519;28;20048;-64
2021/11/23 01:24:26;;;;;;;37.92;18.88;;;5.10;99.90;;;;;;5049807;28;20127;-64
2021/11/23 01:26:53;;;;;;;38.20;18.50;;;5.10;99.90;;;;;;5052015;28;20056;-64
2021/11/23 01:29:20;;;;;;;37.63;19.35;;;5.10;99.90;;;;;;5048158;28;20052;-64
2021/11/23 01:31:47;;;;;;;36.45;18.48;;;5.10;99.90;;;;;;5062871;28;20069;-64
2021/11/23 01:34:16;;;;;;;30.70;17.52;;;5.10;99.90;;;;;;5063834;28;20056;-64
2021/11/23 01:36:43;;;;;;;35.88;19.00;;;5.10;99.90;;;;;;5065141;28;20045;-64
2021/11/23 01:39:10;;;;;;;35.08;18.38;;;5.10;99.90;;;;;;5050071;28;20381;-63
2021/11/23 01:41:37;;;;;;;57.75;21.85;;;5.10;99.90;;;;;;5041485;28;20092;-63
2021/11/23 01:44:04;;;;;;;43.95;18.27;;;5.10;99.90;;;;;;5049160;28;20507;-64
2021/11/23 01:46:31;;;;;;;35.60;18.67;;;5.10;99.90;;;;;;5031413;28;20057;-64
2021/11/23 01:48:58;;;;;;;30.88;18.27;;;5.10;99.90;;;;;;5030547;28;20053;-64
2021/11/23 01:51:25;;;;;;;39.08;20.45;;;5.20;99.90;;;;;;5067868;28;20057;-65
2021/11/23 01:53:52;;;;;;;38.22;18.48;;;5.20;99.90;;;;;;5065380;28;20052;-64
2021/11/23 01:56:19;;;;;;;35.65;19.50;;;5.20;99.90;;;;;;5023481;28;20180;-64
2021/11/23 01:58:46;;;;;;;53.40;21.42;;;5.20;99.90;;;;;;5057551;28;20045;-64
2021/11/23 02:01:13;;;;;;;42.75;19.58;;;5.20;99.90;;;;;;5052698;28;20052;-64
2021/11/23 02:03:40;;;;;;;41.28;19.67;;;5.20;99.90;;;;;;5051800;28;20076;-63
2021/11/23 02:06:08;;;;;;;42.85;19.85;;;5.20;99.90;;;;;;5054379;28;20053;-64
2021/11/23 02:08:35;;;;;;;45.67;21.30;;;5.20;99.90;;;;;;5051836;28;20057;-65
2021/11/23 02:11:02;;;;;;;35.75;20.35;;;5.20;99.90;;;;;;5061395;28;20045;-63
2021/11/23 02:13:29;;;;;;;40.10;21.98;;;5.20;99.90;;;;;;5054838;28;20049;-64
2021/11/23 02:15:57;;;;;;;37.60;20.98;;;5.20;99.90;;;;;;5070289;28;20047;-64
2021/11/23 02:18:24;;;;;;;39.80;21.52;;;5.20;99.90;;;;;;5070763;28;20052;-65
2021/11/23 02:20:52;;;;;;;47.42;21.95;;;5.20;99.90;;;;;;5054382;28;20049;-63
2021/11/23 02:23:19;;;;;;;47.63;21.58;;;5.20;99.90;;;;;;5057937;28;20522;-66
2021/11/23 02:25:47;;;;;;;32.30;19.35;;;5.20;99.90;;;;;;5054139;28;20056;-68
2021/11/23 02:28:14;;;;;;;51.63;21.58;;;5.20;99.90;;;;;;5051590;28;20336;-69
2021/11/23 02:30:45;;;;;;;35.70;21.35;;;5.20;99.90;;;;;;5059934;28;20045;-65
2021/11/23 02:33:16;;;;;;;39.67;23.10;;;5.20;99.90;;;;;;5063112;28;20793;-66
2021/11/23 02:35:43;;;;;;;41.78;22.63;;;5.20;99.90;;;;;;5049856;28;20151;-65
2021/11/23 02:38:10;;;;;;;39.30;23.05;;;5.20;99.90;;;;;;5058487;28;20085;-65
2021/11/23 02:40:37;;;;;;;47.78;23.55;;;5.20;99.90;;;;;;5061884;28;20044;-64
2021/11/23 02:43:05;;;;;;;39.88;23.60;;;5.30;99.90;;;;;;5071495;28;20147;-63
2021/11/23 02:45:32;;;;;;;40.70;23.02;;;5.20;99.90;;;;;;5055073;28;20060;-63
2021/11/23 02:48:00;;;;;;;41.92;20.13;;;5.30;99.90;;;;;;5035100;28;20053;-63
2021/11/23 02:50:27;;;;;;;37.28;21.73;;;5.20;99.90;;;;;;5053488;28;20057;-63
2021/11/23 02:52:56;;;;;;;35.92;20.98;;;5.20;99.90;;;;;;5043456;28;20072;-66
2021/11/23 02:55:27;;;;;;;38.40;21.40;;;5.20;99.90;;;;;;5045764;28;20050;-63
2021/11/23 02:57:54;;;;;;;40.38;21.30;;;5.20;99.90;;;;;;5054753;28;20118;-64
2021/11/23 03:00:24;;;;;;;40.13;22.50;;;5.20;99.90;;;;;;5051432;28;20048;-63
2021/11/23 03:02:51;;;;;;;35.67;20.42;;;5.20;99.90;;;;;;5035369;28;20439;-63
2021/11/23 03:05:19;;;;;;;34.42;20.08;;;5.20;99.90;;;;;;5054835;28;20057;-63
2021/11/23 03:07:47;;;;;;;39.13;19.70;;;5.20;99.90;;;;;;5052684;28;20045;-65
2021/11/23 03:10:14;;;;;;;38.75;20.27;;;5.20;99.90;;;;;;5058927;28;20075;-63
2021/11/23 03:12:45;;;;;;;38.30;20.40;;;5.20;99.90;;;;;;5049999;28;20053;-63
2021/11/23 03:15:12;;;;;;;35.65;19.50;;;5.10;99.90;;;;;;5019468;28;20103;-65
2021/11/23 03:17:39;;;;;;;36.80;20.85;;;5.10;99.90;;;;;;5051943;28;20045;-63
2021/11/23 03:20:07;;;;;;;43.60;22.83;;;5.10;99.90;;;;;;5052352;28;20045;-64
2021/11/23 03:22:34;;;;;;;35.80;20.08;;;5.10;99.90;;;;;;5051091;28;20041;-63
2021/11/23 03:25:01;;;;;;;38.45;19.10;;;5.10;99.90;;;;;;5034678;28;20060;-63
2021/11/23 03:27:28;;;;;;;33.17;19.45;;;5.10;99.90;;;;;;5046938;28;20052;-63
2021/11/23 03:29:55;;;;;;;34.97;19.67;;;5.00;99.90;;;;;;5063604;28;20457;-63
2021/11/23 03:32:24;;;;;;;34.47;20.90;;;5.00;99.90;;;;;;5052319;28;20055;-63
2021/11/23 03:34:52;;;;;;;36.20;20.83;;;5.00;99.90;;;;;;5044854;28;20053;-63
2021/11/23 03:37:24;;;;;;;33.10;19.90;;;5.00;99.90;;;;;;5070262;28;20496;-63
2021/11/23 03:39:51;;;;;;;37.28;18.98;;;5.00;99.90;;;;;;5060542;28;20056;-64
2021/11/23 03:42:18;;;;;;;50.60;21.00;;;5.00;99.90;;;;;;5061107;28;20052;-64
2021/11/23 03:44:45;;;;;;;35.45;18.60;;;4.90;99.90;;;;;;5059080;28;20075;-70
2021/11/23 03:47:13;;;;;;;72.38;21.95;;;4.90;99.90;;;;;;5041788;28;20045;-65
2021/11/23 03:49:45;;;;;;;66.45;20.40;;;4.90;99.90;;;;;;5056738;28;20053;-65
2021/11/23 03:52:13;;;;;;;57.15;21.30;;;4.90;99.90;;;;;;5051146;28;20056;-64
2021/11/23 03:54:40;;;;;;;66.88;20.08;;;4.90;99.90;;;;;;5059671;28;20049;-65
2021/11/23 03:57:07;;;;;;;47.83;20.45;;;4.80;99.90;;;;;;5049778;28;20520;-65
2021/11/23 03:59:34;;;;;;;53.75;20.40;;;4.80;99.90;;;;;;5051435;28;20048;-64
2021/11/23 04:02:01;;;;;;;77.43;20.25;;;4.80;99.90;;;;;;5060878;28;20048;-64
2021/11/23 04:04:28;;;;;;;87.50;21.52;;;4.80;99.90;;;;;;5062400;28;20541;-65
2021/11/23 04:06:58;;;;;;;54.85;21.27;;;4.70;99.90;;;;;;5053224;28;20045;-64
2021/11/23 04:09:25;;;;;;;87.00;21.95;;;4.70;99.90;;;;;;5056719;28;20049;-68
2021/11/23 04:11:52;;;;;;;58.17;20.73;;;4.70;99.90;;;;;;5056365;28;20037;-65
2021/11/23 04:14:18;;;;;;;55.67;21.30;;;4.70;99.90;;;;;;5051474;28;20060;-64
2021/11/23 04:16:46;;;;;;;52.88;19.20;;;4.70;99.90;;;;;;5047839;28;20198;-63
2021/11/23 04:19:13;;;;;;;61.70;20.77;;;4.70;99.90;;;;;;5039401;28;20049;-64
2021/11/23 04:21:40;;;;;;;45.45;18.90;;;4.70;99.90;;;;;;5035309;28;20052;-64
2021/11/23 04:24:07;;;;;;;47.75;21.02;;;4.70;99.90;;;;;;5051943;28;20152;-65
2021/11/23 04:26:34;;;;;;;50.75;21.15;;;4.70;99.90;;;;;;5047904;28;20053;-65
2021/11/23 04:29:01;;;;;;;45.38;18.95;;;4.70;99.90;;;;;;5044230;28;20063;-65
2021/11/23 04:31:28;;;;;;;40.80;19.50;;;4.70;99.90;;;;;;5042963;28;20558;-66
2021/11/23 04:33:55;;;;;;;33.40;18.48;;;4.70;99.90;;;;;;5061668;28;20055;-64
2021/11/23 04:36:22;;;;;;;38.47;17.90;;;4.70;99.90;;;;;;5032901;28;20045;-64
2021/11/23 04:38:49;;;;;;;44.60;19.35;;;4.80;99.90;;;;;;5046956;28;20068;-64
2021/11/23 04:41:15;;;;;;;35.78;18.33;;;4.70;99.90;;;;;;5059619;28;20442;-65
2021/11/23 04:43:42;;;;;;;44.30;17.23;;;4.70;99.90;;;;;;5064082;28;20083;-65
2021/11/23 04:46:09;;;;;;;85.55;20.35;;;4.70;99.90;;;;;;5057279;28;20049;-65
2021/11/23 04:48:36;;;;;;;71.85;22.63;;;4.60;99.90;;;;;;5051277;28;20132;-64
2021/11/23 04:51:03;;;;;;;78.22;21.17;;;4.60;99.90;;;;;;5063537;28;20116;-63
2021/11/23 04:53:30;;;;;;;91.82;21.35;;;4.60;99.90;;;;;;5050172;28;20052;-64
2021/11/23 04:55:57;;;;;;;107.13;21.35;;;4.50;99.90;;;;;;5049205;28;20481;-64
2021/11/23 04:58:24;;;;;;;41.42;19.83;;;4.50;99.90;;;;;;5047481;28;20079;-66
2021/11/23 05:00:51;;;;;;;60.67;18.75;;;4.50;99.90;;;;;;5040587;28;20097;-63
2021/11/23 05:03:18;;;;;;;45.92;17.88;;;4.50;99.90;;;;;;5054129;28;20531;-63
2021/11/23 05:05:45;;;;;;;72.95;21.75;;;4.50;99.90;;;;;;5056322;28;20111;-67
2021/11/23 05:08:11;;;;;;;53.83;18.42;;;4.50;99.90;;;;;;5039939;28;20051;-63
2021/11/23 05:10:38;;;;;;;40.72;18.50;;;4.40;99.90;;;;;;5051171;28;20056;-63
2021/11/23 05:13:05;;;;;;;68.35;17.80;;;4.40;99.90;;;;;;5065823;28;20056;-63
2021/11/23 05:15:32;;;;;;;74.95;17.55;;;4.40;99.90;;;;;;5050345;28;20081;-63
2021/11/23 05:17:59;;;;;;;60.88;20.05;;;4.40;99.90;;;;;;5046915;28;20052;-63
2021/11/23 05:20:26;;;;;;;52.10;18.38;;;4.40;99.90;;;;;;5034016;28;20073;-63
2021/11/23 05:22:53;;;;;;;76.95;18.80;;;4.40;99.90;;;;;;5058092;28;20041;-63
2021/11/23 05:25:20;;;;;;;67.40;17.23;;;4.30;99.90;;;;;;5064923;28;20048;-63
2021/11/23 05:27:47;;;;;;;87.90;18.15;;;4.30;99.90;;;;;;5068857;28;20071;-63
2021/11/23 05:30:14;;;;;;;81.13;17.02;;;4.20;99.90;;;;;;5049040;28;20045;-63
2021/11/23 05:32:41;;;;;;;82.65;15.65;;;4.20;99.90;;;;;;5036850;28;20060;-63
2021/11/23 05:35:09;;;;;;;93.82;15.80;;;4.20;99.90;;;;;;5061656;28;20048;-64
2021/11/23 05:37:36;;;;;;;84.72;17.20;;;4.10;99.90;;;;;;5071593;28;20507;-63
2021/11/23 05:40:04;;;;;;;73.97;15.15;;;4.10;99.90;;;;;;5072778;28;20093;-63
2021/11/23 05:42:31;;;;;;;89.20;16.90;;;4.00;99.90;;;;;;5043882;28;20053;-65
2021/11/23 05:44:58;;;;;;;84.63;18.08;;;3.90;99.90;;;;;;5060361;28;20064;-62
2021/11/23 05:47:25;;;;;;;108.97;19.23;;;4.00;99.90;;;;;;5058294;28;20049;-64
2021/11/23 05:49:52;;;;;;;82.45;16.58;;;3.90;99.90;;;;;;5052676;28;20045;-63
2021/11/23 05:52:19;;;;;;;65.70;16.27;;;3.90;99.90;;;;;;5053350;28;20132;-62
2021/11/23 05:54:46;;;;;;;65.07;16.05;;;3.90;99.90;;;;;;5068223;28;20060;-63
2021/11/23 05:57:13;;;;;;;60.35;15.45;;;3.90;99.90;;;;;;5045180;28;20086;-63
2021/11/23 05:59:40;;;;;;;53.72;13.93;;;3.90;99.90;;;;;;5065276;28;20056;-63
2021/11/23 06:02:07;;;;;;;76.13;15.45;;;3.90;99.90;;;;;;5054109;28;20053;-63
2021/11/23 06:04:35;;;;;;;85.82;16.05;;;3.80;99.90;;;;;;5054530;28;20508;-62
2021/11/23 06:07:02;;;;;;;95.88;17.15;;;3.80;99.90;;;;;;5053491;28;20048;-63
2021/11/23 06:09:29;;;;;;;88.00;16.67;;;3.80;99.90;;;;;;5040909;28;20096;-63
2021/11/23 06:11:56;;;;;;;78.25;16.63;;;3.80;99.90;;;;;;5053145;28;20045;-62
2021/11/23 06:14:23;;;;;;;54.70;13.60;;;3.80;99.90;;;;;;5060528;28;20048;-63
2021/11/23 06:16:50;;;;;;;75.97;14.10;;;3.70;99.90;;;;;;5056165;28;20112;-63
2021/11/23 06:19:17;;;;;;;59.97;14.98;;;3.80;99.90;;;;;;5052468;28;20550;-63
2021/11/23 06:21:45;;;;;;;86.03;15.90;;;3.70;99.90;;;;;;5053236;28;20052;-67
2021/11/23 06:24:12;;;;;;;44.17;13.30;;;3.70;99.90;;;;;;5046986;28;20129;-64
2021/11/23 06:26:39;;;;;;;53.33;15.32;;;3.70;99.90;;;;;;5053635;28;20049;-63
2021/11/23 06:29:06;;;;;;;52.60;14.80;;;3.70;99.90;;;;;;5049738;28;20052;-65
2021/11/23 06:31:33;;;;;;;31.75;15.25;;;3.70;99.90;;;;;;5036833;28;20070;-65
2021/11/23 06:34:00;;;;;;;31.38;13.15;;;3.70;99.90;;;;;;5061846;28;20114;-65
2021/11/23 06:36:27;;;;;;;24.58;13.20;;;3.70;99.90;;;;;;5052445;28;20063;-66
2021/11/23 06:38:54;;;;;;;25.85;13.80;;;3.70;99.90;;;;;;5053720;28;20492;-62
2021/11/23 06:41:21;;;;;;;26.50;13.77;;;3.70;99.90;;;;;;5034812;28;20759;-62
2021/11/23 06:43:48;;;;;;;23.17;13.30;;;3.70;99.90;;;;;;5054717;28;20059;-65
2021/11/23 06:46:15;;;;;;;22.65;13.80;;;3.70;99.90;;;;;;5064343;28;20049;-63
2021/11/23 06:48:42;;;;;;;20.40;14.20;;;3.70;99.90;;;;;;5050524;28;20128;-64
2021/11/23 06:51:09;;;;;;;18.83;12.45;;;3.70;99.90;;;;;;5056253;28;20064;-64
2021/11/23 06:53:36;;;;;;;18.58;12.80;;;3.70;99.90;;;;;;5060664;28;20044;-66
2021/11/23 06:56:03;;;;;;;21.00;15.30;;;3.70;99.90;;;;;;5041578;28;20049;-65
2021/11/23 06:58:30;;;;;;;24.02;16.92;;;3.70;99.90;;;;;;5051890;28;20049;-67
2021/11/23 07:00:57;;;;;;;19.48;13.68;;;3.70;99.90;;;;;;5059798;28;20059;-66
2021/11/23 07:03:24;;;;;;;17.13;11.40;;;3.70;99.90;;;;;;5058741;28;20064;-65
2021/11/23 07:05:51;;;;;;;17.20;12.35;;;3.70;99.90;;;;;;5028144;28;20546;-65
2021/11/23 07:08:26;;;;;;;15.57;11.20;;;3.70;99.90;;;;;;5043039;28;20056;-66
2021/11/23 07:10:53;;;;;;;16.52;11.27;;;3.70;99.90;;;;;;5046949;28;20052;-66
2021/11/23 07:13:20;;;;;;;16.20;11.18;;;3.60;99.90;;;;;;5040661;28;20045;-66
2021/11/23 07:15:47;;;;;;;15.90;10.80;;;3.60;99.90;;;;;;5032017;28;20049;-65
2021/11/23 07:18:14;;;;;;;15.82;11.52;;;3.60;99.90;;;;;;5048702;28;20060;-67
2021/11/23 07:20:41;;;;;;;22.35;14.70;;;3.60;99.90;;;;;;5049127;28;20052;-64
2021/11/23 07:23:08;;;;;;;16.58;11.77;;;3.60;99.90;;;;;;5064122;28;20040;-67
2021/11/23 07:25:35;;;;;;;16.15;11.43;;;3.60;99.90;;;;;;5055554;28;20075;-64
2021/11/23 07:28:02;;;;;;;19.73;12.73;;;3.60;99.90;;;;;;5064909;28;20508;-65
2021/11/23 07:30:29;;;;;;;17.20;12.20;;;3.60;99.90;;;;;;5065008;28;20081;-64
2021/11/23 07:32:57;;;;;;;20.05;12.60;;;3.60;99.90;;;;;;5031200;28;20057;-63
2021/11/23 07:35:24;;;;;;;17.27;12.00;;;3.60;99.90;;;;;;5039651;28;20427;-65
2021/11/23 07:37:51;;;;;;;18.73;13.55;;;3.60;99.90;;;;;;5054857;28;20073;-65
2021/11/23 07:40:18;;;;;;;26.60;14.85;;;3.50;99.90;;;;;;5048417;28;20048;-64
2021/11/23 07:42:45;;;;;;;21.63;14.15;;;3.50;99.90;;;;;;5024028;28;20051;-64
2021/11/23 07:45:32;;;;;;;27.20;15.10;;;3.50;99.90;;;;;;5058536;28;20569;-64
2021/11/23 07:47:59;;;;;;;26.08;15.77;;;3.50;99.90;;;;;;5065740;28;20508;-65
2021/11/23 07:50:26;;;;;;;33.90;16.95;;;3.40;99.90;;;;;;5042387;28;20063;-64
2021/11/23 07:52:53;;;;;;;25.95;14.02;;;3.40;99.90;;;;;;5054683;28;20554;-65
2021/11/23 07:55:20;;;;;;;23.08;14.73;;;3.40;99.90;;;;;;5059710;28;20064;-63
2021/11/23 07:57:47;;;;;;;24.85;13.98;;;3.40;99.90;;;;;;5067674;28;20060;-66
2021/11/23 08:00:14;;;;;;;25.70;15.70;;;3.40;99.90;;;;;;5056556;28;20075;-64
2021/11/23 08:02:41;;;;;;;29.67;16.15;;;3.50;99.90;;;;;;5056641;28;20114;-65
2021/11/23 08:05:11;;;;;;;20.30;13.82;;;3.50;99.90;;;;;;5063214;28;20483;-63
2021/11/23 08:07:38;;;;;;;23.17;14.02;;;3.50;99.90;;;;;;5057388;28;20356;-65
2021/11/23 08:10:05;;;;;;;23.17;14.90;;;3.50;99.90;;;;;;5058582;28;20076;-64
2021/11/23 08:12:32;;;;;;;24.98;15.48;;;3.50;99.90;;;;;;5024057;28;20369;-65
2021/11/23 08:14:59;;;;;;;25.30;16.67;;;3.60;99.90;;;;;;5057471;28;20036;-66
2021/11/23 08:17:26;;;;;;;23.25;13.73;;;3.70;99.90;;;;;;5049037;28;20055;-65
2021/11/23 08:19:53;;;;;;;22.23;13.13;;;3.70;99.90;;;;;;5034822;28;20064;-65
2021/11/23 08:22:20;;;;;;;21.30;14.43;;;3.70;99.90;;;;;;5055183;28;20044;-66
2021/11/23 08:24:47;;;;;;;25.15;13.80;;;3.80;99.90;;;;;;5055200;28;20045;-64
2021/11/23 08:27:14;;;;;;;28.63;13.65;;;3.90;99.90;;;;;;5056904;28;20052;-65
2021/11/23 08:29:41;;;;;;;28.27;19.58;;;4.00;99.90;;;;;;5051700;28;20838;-64
2021/11/23 08:32:08;;;;;;;31.95;20.70;;;4.00;99.90;;;;;;5049176;28;20140;-65
2021/11/23 08:34:36;;;;;;;26.45;16.27;;;4.10;99.90;;;;;;5056686;28;20492;-65
2021/11/23 08:37:03;;;;;;;31.88;20.60;;;4.10;99.90;;;;;;5053077;28;20052;-66
2021/11/23 08:39:30;;;;;;;24.73;15.80;;;4.10;99.90;;;;;;5047170;28;20181;-65
2021/11/23 08:41:57;;;;;;;20.30;13.55;;;4.10;99.90;;;;;;5034875;28;20052;-65
2021/11/23 08:44:24;;;;;;;19.73;13.00;;;4.10;99.90;;;;;;5059602;28;20052;-65
2021/11/23 08:46:51;;;;;;;21.40;12.75;;;4.10;99.90;;;;;;5060502;28;20064;-63
2021/11/23 08:49:18;;;;;;;21.48;13.40;;;4.10;99.90;;;;;;5037229;28;20053;-65
2021/11/23 08:51:45;;;;;;;20.58;13.02;;;4.10;99.90;;;;;;5035514;28;20415;-64
2021/11/23 08:54:12;;;;;;;21.58;12.65;;;4.20;99.90;;;;;;5054397;28;20044;-67
2021/11/23 08:56:41;;;;;;;17.75;12.00;;;4.20;99.90;;;;;;5046823;28;20100;-63
2021/11/23 08:59:14;;;;;;;17.95;13.20;;;4.20;99.90;;;;;;5046399;28;20060;-63
2021/11/23 09:01:41;;;;;;;29.50;16.98;;;4.20;99.90;;;;;;5045750;28;20200;-65
2021/11/23 09:04:10;;;;;;;17.73;12.65;;;4.30;99.90;;;;;;5031449;28;20047;-64
2021/11/23 09:06:39;;;;;;;18.35;13.32;;;4.30;99.90;;;;;;5029203;28;20045;-63
2021/11/23 09:09:08;;;;;;;19.38;12.63;;;4.40;99.90;;;;;;5033302;28;20045;-63
2021/11/23 09:11:37;;;;;;;24.85;13.45;;;4.40;99.90;;;;;;5016879;28;20464;-64
2021/11/23 09:14:04;;;;;;;19.08;13.15;;;4.50;99.90;;;;;;5057598;28;20114;-65
2021/11/23 09:16:34;;;;;;;18.67;11.38;;;4.50;99.90;;;;;;5049524;28;20500;-68
2021/11/23 09:19:02;;;;;;;18.75;12.57;;;4.60;99.90;;;;;;5048753;28;20048;-68
2021/11/23 09:21:29;;;;;;;23.00;14.90;;;4.60;99.90;;;;;;5055047;28;20135;-68
2021/11/23 09:23:56;;;;;;;24.70;16.90;;;4.70;99.90;;;;;;5037208;28;20075;-68
2021/11/23 09:26:23;;;;;;;21.70;13.68;;;4.70;99.90;;;;;;5015173;28;20048;-69
2021/11/23 09:28:50;;;;;;;40.25;27.98;;;4.70;99.90;;;;;;5015997;28;20049;-66
2021/11/23 09:31:18;;;;;;;25.73;18.02;;;4.80;99.90;;;;;;5047996;28;20045;-66
2021/11/23 09:33:45;;;;;;;22.42;13.57;;;4.80;99.90;;;;;;5048867;28;20045;-70
2021/11/23 09:36:12;;;;;;;25.08;14.07;;;4.90;99.90;;;;;;5060738;28;20086;-65
2021/11/23 09:38:39;;;;;;;21.05;13.40;;;4.90;99.90;;;;;;5044830;28;20049;-67
2021/11/23 09:41:07;;;;;;;21.02;13.55;;;4.90;99.90;;;;;;5048414;28;20057;-67
2021/11/23 09:43:34;;;;;;;19.45;14.23;;;5.00;99.90;;;;;;5031091;28;20077;-72
2021/11/23 09:46:01;;;;;;;16.95;12.50;;;5.00;99.90;;;;;;5032985;28;20041;-68
2021/11/23 09:48:29;;;;;;;21.95;12.95;;;5.10;99.90;;;;;;5032474;28;20138;-66
2021/11/23 09:50:56;;;;;;;24.88;14.13;;;5.10;99.90;;;;;;5052458;28;20067;-63
2021/11/23 09:53:24;;;;;;;19.83;13.95;;;5.10;99.90;;;;;;5047330;28;20049;-64
2021/11/23 09:55:54;;;;;;;21.65;13.80;;;5.10;99.90;;;;;;5049480;28;20113;-65
2021/11/23 09:58:22;;;;;;;17.98;12.38;;;5.10;99.90;;;;;;5048177;28;20060;-65
2021/11/23 10:00:50;;;;;;;20.80;12.63;;;5.20;99.90;;;;;;5048314;28;20051;-65
2021/11/23 10:03:24;;;;;;;21.42;13.35;;;5.20;99.90;;;;;;5051597;28;20060;-66
2021/11/23 10:06:04;;;;;;;22.83;14.88;;;5.30;99.90;;;;;;5049963;28;20444;-63
2021/11/23 10:08:31;;;;;;;21.95;15.30;;;5.40;99.90;;;;;;5048302;28;20056;-63
2021/11/23 10:10:58;;;;;;;22.02;15.45;;;5.50;99.90;;;;;;5058298;28;20420;-68
2021/11/23 10:13:44;;;;;;;19.92;13.93;;;5.60;99.90;;;;;;5047851;28;20056;-63
2021/11/23 10:16:12;;;;;;;22.00;14.18;;;5.70;99.90;;;;;;5047732;28;20409;-68
2021/11/23 10:18:50;;;;;;;24.05;13.77;;;5.80;99.90;;;;;;5048430;28;20059;-68
2021/11/23 10:21:19;;;;;;;25.83;14.50;;;5.90;99.90;;;;;;5048871;28;20089;-69
2021/11/23 10:23:48;;;;;;;21.02;13.52;;;6.00;99.90;;;;;;5035895;28;20053;-68
2021/11/23 10:26:22;;;;;;;22.48;14.50;;;6.10;99.90;;;;;;5051405;28;20053;-64
2021/11/23 10:29:05;;;;;;;24.20;14.93;;;6.20;99.90;;;;;;5051368;28;20045;-68
2021/11/23 10:31:36;;;;;;;25.35;15.48;;;6.30;99.90;;;;;;5051277;28;20104;-69
2021/11/23 10:34:06;;;;;;;19.80;14.50;;;6.30;99.90;;;;;;5048614;28;20045;-67
2021/11/23 10:36:54;;;;;;;24.15;14.65;;;6.40;99.90;;;;;;5051246;28;20057;-72
2021/11/23 10:39:24;;;;;;;22.30;14.23;;;6.40;99.90;;;;;;5035610;28;20049;-71
2021/11/23 10:41:58;;;;;;;;;;;6.40;99.90;;;;;;5059596;28;20058;-70
2021/11/23 10:44:27;;;;;;;23.58;15.43;;;6.40;99.90;;;;;;5051351;28;19925;-70
2021/11/23 10:46:55;;;;;;;24.55;15.82;;;6.30;99.90;;;;;;5051764;28;20052;-70
2021/11/23 10:49:42;;;;;;;21.70;16.25;;;6.20;99.90;;;;;;5050458;28;20093;-69
2021/11/23 10:52:39;;;;;;;22.98;16.15;;;6.20;99.90;;;;;;5043373;28;20493;-68
2021/11/23 10:55:21;;;;;;;25.20;16.92;;;6.20;99.90;;;;;;5048309;28;20098;-66
2021/11/23 10:57:48;;;;;;;27.80;17.17;;;6.10;99.90;;;;;;5050962;28;20475;-67
2021/11/23 11:00:15;;;;;;;34.85;16.52;;;6.10;99.90;;;;;;5032203;28;20064;-66
2021/11/23 11:02:43;;;;;;;28.63;16.90;;;6.10;99.90;;;;;;5034795;28;20053;-69
2021/11/23 11:05:12;;;;;;;39.50;20.52;;;6.10;99.90;;;;;;5030788;28;20045;-68
2021/11/23 11:07:39;;;;;;;29.13;16.35;;;6.00;99.90;;;;;;5033206;28;20100;-67
2021/11/23 11:10:07;;;;;;;29.60;18.65;;;6.10;99.90;;;;;;5051216;28;20485;-69
2021/11/23 11:12:35;;;;;;;31.95;18.00;;;6.10;99.90;;;;;;5040178;28;20063;-69
2021/11/23 11:15:07;;;;;;;31.05;17.92;;;6.10;99.90;;;;;;5033443;28;20053;-70
2021/11/23 11:17:39;;;;;;;33.20;20.33;;;6.10;99.90;;;;;;5030795;28;20065;-69
2021/11/23 11:20:35;;;;;;;25.63;17.30;;;6.10;99.90;;;;;;5050269;28;20053;-67
2021/11/23 11:23:07;;;;;;;31.38;19.35;;;6.10;99.90;;;;;;5033977;28;20135;-71
2021/11/23 11:26:06;;;;;;;27.48;18.17;;;6.10;99.90;;;;;;5049242;28;20053;-69
2021/11/23 11:28:37;;;;;;;28.92;18.38;;;6.10;99.90;;;;;;5050429;28;20060;-67
2021/11/23 11:31:06;;;;;;;31.30;17.65;;;6.10;99.90;;;;;;5050502;28;20045;-66
2021/11/23 11:33:34;;;;;;;31.60;19.88;;;6.10;99.90;;;;;;5050750;28;20072;-70
2021/11/23 11:36:01;;;;;;;29.23;20.20;;;6.20;99.90;;;;;;5052228;28;21024;-71
2021/11/23 11:38:28;;;;;;;36.55;21.30;;;6.20;99.90;;;;;;5050262;28;20075;-68
2021/11/23 11:41:03;;;;;;;34.72;21.30;;;6.20;99.90;;;;;;5052313;28;20048;-66
2021/11/23 11:43:40;;;;;;;32.10;19.92;;;6.30;99.90;;;;;;5070209;28;20067;-69
2021/11/23 11:46:08;;;;;;;36.40;20.55;;;6.30;99.90;;;;;;5066011;28;20064;-71
2021/11/23 11:48:38;;;;;;;36.30;21.23;;;6.30;99.90;;;;;;5033885;28;20089;-68
2021/11/23 11:51:06;;;;;;;;;;;6.40;99.90;;;;;;5050455;28;20491;-67
2021/11/23 11:54:22;;;;;;;133.80;101.38;;;6.50;99.90;;;;;;5051050;28;19927;-63
2021/11/23 11:56:50;;;;;;;336.85;227.95;;;6.50;99.90;;;;;;5044732;28;20384;-62
2021/11/23 11:59:17;;;;;;;75.93;53.80;;;6.60;99.90;;;;;;5066896;28;20404;-68
2021/11/23 12:01:52;;;;;;;38.15;25.67;;;6.70;99.90;;;;;;5049465;28;20045;-66
2021/11/23 12:04:21;;;;;;;31.08;21.65;;;6.60;99.90;;;;;;5045952;28;20045;-74
2021/11/23 12:06:54;;;;;;;32.55;20.80;;;6.60;99.90;;;;;;5058146;28;20094;-68
2021/11/23 12:09:37;;;;;;;31.85;19.30;;;6.60;99.90;;;;;;5047904;28;20556;-71
2021/11/23 12:12:10;;;;;;;33.10;19.38;;;6.50;99.90;;;;;;5060481;28;20139;-70
2021/11/23 12:14:51;;;;;;;30.13;17.30;;;6.60;99.90;;;;;;5049182;28;20059;-65
2021/11/23 12:17:34;;;;;;;32.92;20.08;;;6.60;99.90;;;;;;5033531;28;20053;-69
2021/11/23 12:20:07;;;;;;;31.58;16.85;;;6.60;99.90;;;;;;5050849;28;20831;-65
2021/11/23 12:22:45;;;;;;;31.50;18.65;;;6.60;99.90;;;;;;5049357;28;20049;-65
2021/11/23 12:25:13;;;;;;;31.27;17.65;;;6.60;99.90;;;;;;5028941;28;20041;-65
2021/11/23 12:27:46;;;;;;;28.70;17.90;;;6.60;99.90;;;;;;5032973;28;20078;-63
2021/11/23 12:30:14;;;;;;;35.80;20.27;;;6.60;99.90;;;;;;5049809;28;20045;-63
2021/11/23 12:32:42;;;;;;;27.45;17.98;;;6.60;99.90;;;;;;5049717;28;20068;-67
2021/11/23 12:35:10;;;;;;;31.23;17.73;;;6.60;99.90;;;;;;5050828;28;20049;-64
2021/11/23 12:37:38;;;;;;;33.67;18.88;;;6.70;99.90;;;;;;5066341;28;20420;-63
2021/11/23 12:40:20;;;;;;;26.98;17.83;;;6.60;99.90;;;;;;5049353;28;20051;-63
2021/11/23 12:42:52;;;;;;;91.57;58.72;;;6.60;99.90;;;;;;5050630;28;20445;-63
2021/11/23 12:45:43;;;;;;;174.90;108.15;;;6.70;99.90;;;;;;5050328;28;20053;-64